Time;durP1;ratioP1;P1;durP2;ratioP2;P2;SDS_P1;SDS_P2;PMS_P1;PMS_P2;Temp;Humidity;BMP_temperature;BMP_pressure;BME280_temperature;BME280_humidity;BME280_pressure;Samples;Min_cycle;Max_cycle;Signal;HPM_P1;HPM_P2
2021/11/20 00:01:56;;;;;;;183.00;167.30;;;11.30;99.90;;;;;;5055211;28;20200;-82
2021/11/20 00:03:47;;;;;;;189.93;173.95;;;11.30;99.90;;;;;;5031216;28;20252;-83
2021/11/20 00:09:52;;;;;;;188.35;172.15;;;11.30;99.90;;;;;;5043707;28;20186;-82
2021/11/20 00:13:11;;;;;;;185.55;169.73;;;11.30;99.90;;;;;;5097776;28;20198;-83
2021/11/20 00:16:15;;;;;;;183.32;167.18;;;11.30;99.90;;;;;;5054797;28;20204;-83
2021/11/20 00:19:02;;;;;;;194.52;178.07;;;11.30;99.90;;;;;;5060308;28;20195;-82
2021/11/20 00:22:03;;;;;;;206.10;188.32;;;11.20;99.90;;;;;;5097665;28;20183;-82
2021/11/20 00:25:01;;;;;;;186.90;170.00;;;11.30;99.90;;;;;;5096879;28;20250;-82
2021/11/20 00:27:44;;;;;;;204.68;187.65;;;11.30;99.90;;;;;;5097189;28;20148;-83
2021/11/20 00:30:41;;;;;;;175.18;159.30;;;11.30;99.90;;;;;;5142222;22;20228;-83
2021/11/20 00:33:52;;;;;;;168.45;153.05;;;11.30;99.90;;;;;;5077000;28;20663;-82
2021/11/20 00:43:04;;;;;;;198.43;181.25;;;11.20;99.90;;;;;;5076778;28;20665;-83
2021/11/20 00:48:38;;;;;;;180.95;164.95;;;11.20;99.90;;;;;;5073762;28;20198;-83
2021/11/20 00:54:32;;;;;;;163.00;147.60;;;11.20;99.90;;;;;;5076828;28;20362;-83
2021/11/20 00:57:09;;;;;;;168.80;153.30;;;11.20;99.90;;;;;;5067052;28;20176;-82
2021/11/20 01:00:10;;;;;;;177.90;162.30;;;11.20;99.90;;;;;;5076246;28;20194;-83
2021/11/20 01:05:42;;;;;;;181.20;165.05;;;11.20;99.90;;;;;;5057818;28;20270;-83
2021/11/20 01:08:23;;;;;;;204.57;186.55;;;11.20;99.90;;;;;;5076261;28;20643;-83
2021/11/20 01:11:25;;;;;;;205.52;188.13;;;11.10;99.90;;;;;;5058602;28;20662;-83
2021/11/20 01:14:25;;;;;;;212.75;195.20;;;11.20;99.90;;;;;;5076697;28;20147;-83
2021/11/20 01:17:31;;;;;;;215.23;197.48;;;11.10;99.90;;;;;;5076284;28;20178;-82
2021/11/20 01:20:00;;;;;;;195.05;178.73;;;11.10;99.90;;;;;;5094319;23;20211;-83
2021/11/20 01:22:54;;;;;;;190.93;174.82;;;11.10;99.90;;;;;;5096399;28;20217;-83
2021/11/20 01:25:30;;;;;;;185.20;168.90;;;11.10;99.90;;;;;;5095174;28;20546;-82
2021/11/20 01:28:51;;;;;;;;;;;;;;;;;;;;;
2021/11/20 01:32:14;;;;;;;;;;;;;;;;;;;;;
2021/11/20 01:34:36;;;;;;;184.40;168.27;;;11.10;99.90;;;;;;5072449;28;20183;-83
2021/11/20 01:40:02;;;;;;;174.20;158.70;;;11.10;99.90;;;;;;5050483;28;20263;-82
2021/11/20 01:42:53;;;;;;;211.65;193.85;;;11.20;99.90;;;;;;5074192;28;20164;-82
2021/11/20 01:45:59;;;;;;;163.68;148.13;;;11.10;99.90;;;;;;5075940;28;20152;-83
2021/11/20 01:49:11;;;;;;;171.93;156.32;;;11.10;99.90;;;;;;5074031;28;20638;-83
2021/11/20 01:52:35;;;;;;;;;;;;;;;;;;;;;
2021/11/20 01:55:32;;;;;;;;;;;;;;;;;;;;;
2021/11/20 01:58:43;;;;;;;180.80;164.40;;;11.10;99.90;;;;;;5075480;28;20224;-82
2021/11/20 02:01:43;;;;;;;160.35;144.50;;;11.00;99.90;;;;;;5075823;28;20549;-82
2021/11/20 02:04:46;;;;;;;186.77;170.25;;;11.00;99.90;;;;;;5074776;28;20164;-82
2021/11/20 02:07:34;;;;;;;196.05;179.20;;;11.00;99.90;;;;;;5075295;28;20661;-82
2021/11/20 02:10:46;;;;;;;194.40;176.93;;;11.00;99.90;;;;;;5075081;28;20188;-83
2021/11/20 02:13:25;;;;;;;169.60;153.52;;;11.00;99.90;;;;;;5067816;28;20178;-83
2021/11/20 02:16:27;;;;;;;210.18;193.35;;;11.00;99.90;;;;;;5078393;28;20163;-83
2021/11/20 02:19:21;;;;;;;189.73;173.40;;;11.00;99.90;;;;;;5070289;28;20234;-82
2021/11/20 02:22:55;;;;;;;195.43;179.10;;;11.10;99.90;;;;;;5079063;28;20213;-83
2021/11/20 02:25:36;;;;;;;;;;;;;;;;;;;;;
2021/11/20 02:28:09;;;;;;;186.95;170.70;;;11.10;99.90;;;;;;5079428;28;20247;-83
2021/11/20 02:30:51;;;;;;;197.80;180.63;;;11.00;99.90;;;;;;5079324;28;20167;-83
2021/11/20 02:33:59;;;;;;;176.38;160.43;;;11.00;99.90;;;;;;5077657;28;20202;-83
2021/11/20 02:36:25;;;;;;;194.23;177.60;;;11.00;99.90;;;;;;5079021;28;20188;-82
2021/11/20 02:39:30;;;;;;;159.97;144.33;;;11.00;99.90;;;;;;5078561;28;20191;-83
2021/11/20 02:42:33;;;;;;;144.75;129.77;;;11.00;99.90;;;;;;5038930;28;20521;-83
2021/11/20 02:45:36;;;;;;;180.70;164.40;;;11.00;99.90;;;;;;5039401;28;20567;-83
2021/11/20 02:48:03;;;;;;;157.32;142.48;;;11.00;99.90;;;;;;5056638;28;20224;-83
2021/11/20 02:51:07;;;;;;;182.32;166.00;;;11.00;99.90;;;;;;5056747;28;20187;-83
2021/11/20 02:56:10;;;;;;;186.98;170.65;;;11.00;99.90;;;;;;5166498;22;20246;-85
2021/11/20 02:58:49;;;;;;;201.25;184.13;;;11.00;99.90;;;;;;5098852;28;20218;-85
2021/11/20 03:01:23;;;;;;;198.23;181.43;;;10.90;99.90;;;;;;5098652;28;20186;-84
2021/11/20 03:03:52;;;;;;;186.98;170.27;;;10.90;99.90;;;;;;5097595;28;20155;-84
2021/11/20 03:06:39;;;;;;;186.18;169.65;;;10.90;99.90;;;;;;5097523;28;20218;-84
2021/11/20 03:09:21;;;;;;;;;;;;;;;;;;;;;
2021/11/20 03:11:54;;;;;;;201.70;185.13;;;11.00;99.90;;;;;;5098436;28;20154;-84
2021/11/20 03:14:28;;;;;;;196.00;179.35;;;10.90;99.90;;;;;;5098632;28;20209;-84
2021/11/20 03:16:57;;;;;;;227.38;209.23;;;11.00;99.90;;;;;;5098811;28;20182;-84
2021/11/20 03:19:27;;;;;;;209.82;192.05;;;11.00;99.90;;;;;;5097965;28;20185;-84
2021/11/20 03:22:00;;;;;;;202.43;185.20;;;11.00;99.90;;;;;;5098396;28;20279;-84
2021/11/20 03:24:28;;;;;;;187.88;171.40;;;11.00;99.90;;;;;;5097860;28;20197;-84
2021/11/20 03:26:59;;;;;;;185.88;169.50;;;11.00;99.90;;;;;;5096349;28;20165;-84
2021/11/20 03:29:28;;;;;;;168.57;152.30;;;11.00;99.90;;;;;;5098045;28;20662;-84
2021/11/20 03:32:01;;;;;;;195.00;177.75;;;11.00;99.90;;;;;;5098103;28;20167;-84
2021/11/20 03:34:30;;;;;;;181.80;165.38;;;11.00;99.90;;;;;;5098371;28;20373;-84
2021/11/20 03:36:56;;;;;;;211.85;194.05;;;10.90;99.90;;;;;;5100142;28;20163;-84
2021/11/20 03:39:30;;;;;;;176.63;160.60;;;10.90;99.90;;;;;;5099446;28;20185;-84
2021/11/20 03:42:06;;;;;;;192.02;175.35;;;10.90;99.90;;;;;;5097882;28;20429;-84
2021/11/20 03:44:32;;;;;;;191.60;175.10;;;10.90;99.90;;;;;;5096565;28;20683;-84
2021/11/20 03:47:08;;;;;;;185.60;169.32;;;10.90;99.90;;;;;;5097520;28;20174;-84
2021/11/20 03:49:36;;;;;;;192.05;175.75;;;10.90;99.90;;;;;;5096692;28;20661;-85
2021/11/20 03:52:10;;;;;;;195.52;178.35;;;10.90;99.90;;;;;;5097341;28;20167;-84
2021/11/20 03:54:39;;;;;;;205.07;187.48;;;10.90;99.90;;;;;;5097957;28;20239;-84
2021/11/20 03:57:17;;;;;;;193.50;176.63;;;10.90;99.90;;;;;;5097728;28;20163;-84
2021/11/20 03:59:43;;;;;;;179.85;163.77;;;10.90;99.90;;;;;;5097452;28;20198;-84
2021/11/20 04:02:12;;;;;;;220.43;202.37;;;10.90;99.90;;;;;;5097263;28;20681;-84
2021/11/20 04:04:40;;;;;;;220.63;202.85;;;10.90;99.90;;;;;;5096550;28;20409;-84
2021/11/20 04:07:09;;;;;;;179.38;163.10;;;10.80;99.90;;;;;;5097355;28;20171;-84
2021/11/20 04:09:37;;;;;;;166.30;150.32;;;10.90;99.90;;;;;;5096706;28;20295;-84
2021/11/20 04:12:04;;;;;;;176.75;160.65;;;10.90;99.90;;;;;;5097152;28;20170;-84
2021/11/20 04:14:35;;;;;;;138.15;123.40;;;10.90;99.90;;;;;;5096111;28;20178;-84
2021/11/20 04:17:05;;;;;;;156.20;140.63;;;10.90;99.90;;;;;;5097036;28;20147;-84
2021/11/20 04:19:31;;;;;;;140.52;125.75;;;10.90;99.90;;;;;;5097155;28;20186;-84
2021/11/20 04:22:00;;;;;;;126.53;105.57;;;10.90;99.90;;;;;;5097052;28;20186;-84
2021/11/20 04:24:26;;;;;;;155.18;140.02;;;10.90;99.90;;;;;;5095311;28;20174;-84
2021/11/20 04:26:54;;;;;;;118.83;101.47;;;10.80;99.90;;;;;;5095681;28;20187;-84
2021/11/20 04:29:26;;;;;;;137.60;122.65;;;10.80;99.90;;;;;;5096821;28;20504;-84
2021/11/20 04:31:55;;;;;;;120.15;87.82;;;10.80;99.90;;;;;;5096291;28;20159;-84
2021/11/20 04:34:26;;;;;;;117.68;87.88;;;10.80;99.90;;;;;;5096722;28;20169;-84
2021/11/20 04:36:54;;;;;;;117.40;75.70;;;10.80;99.90;;;;;;5095946;28;20152;-84
2021/11/20 04:39:32;;;;;;;108.78;62.70;;;10.80;99.90;;;;;;5095137;28;20191;-84
2021/11/20 04:42:08;;;;;;;108.55;58.33;;;10.80;99.90;;;;;;5095644;28;20194;-84
2021/11/20 04:44:37;;;;;;;97.82;45.38;;;10.80;99.90;;;;;;5097002;28;20146;-84
2021/11/20 04:47:03;;;;;;;109.55;56.78;;;10.80;99.90;;;;;;5096942;28;20174;-84
2021/11/20 04:49:30;;;;;;;103.63;50.97;;;10.80;99.90;;;;;;5096898;28;20226;-84
2021/11/20 04:51:56;;;;;;;104.13;52.65;;;10.80;99.90;;;;;;5097491;28;20162;-84
2021/11/20 04:54:34;;;;;;;109.03;57.90;;;10.80;99.90;;;;;;5096140;28;20187;-84
2021/11/20 04:56:59;;;;;;;107.75;54.28;;;10.80;99.90;;;;;;5097063;28;20257;-84
2021/11/20 04:59:31;;;;;;;102.57;53.63;;;10.80;99.90;;;;;;5097543;28;20226;-84
2021/11/20 05:02:07;;;;;;;106.38;56.53;;;10.80;99.90;;;;;;5096533;28;20387;-84
2021/11/20 05:04:35;;;;;;;104.90;48.13;;;10.80;99.90;;;;;;5097670;28;20230;-84
2021/11/20 05:07:06;;;;;;;102.53;46.97;;;10.80;99.90;;;;;;5096642;28;20164;-84
2021/11/20 05:09:32;;;;;;;107.50;47.15;;;10.70;99.90;;;;;;5097810;28;20244;-84
2021/11/20 05:12:01;;;;;;;101.25;44.78;;;10.80;99.90;;;;;;5096578;28;20187;-84
2021/11/20 05:14:30;;;;;;;104.30;45.97;;;10.70;99.90;;;;;;5097205;28;20160;-84
2021/11/20 05:16:58;;;;;;;108.43;47.63;;;10.70;99.90;;;;;;5095381;28;20219;-84
2021/11/20 05:19:27;;;;;;;102.72;49.00;;;10.70;99.90;;;;;;5097044;28;20205;-84
2021/11/20 05:21:56;;;;;;;106.00;48.80;;;10.70;99.90;;;;;;5096224;28;20194;-84
2021/11/20 05:24:24;;;;;;;106.15;54.83;;;10.70;99.90;;;;;;5095203;28;20247;-84
2021/11/20 05:26:51;;;;;;;100.82;41.47;;;10.70;99.90;;;;;;5096547;28;20157;-84
2021/11/20 05:29:41;;;;;;;107.25;58.28;;;10.70;99.90;;;;;;5095367;28;20187;-84
2021/11/20 05:32:08;;;;;;;102.78;45.15;;;10.70;99.90;;;;;;5096061;28;20151;-84
2021/11/20 05:34:39;;;;;;;99.88;49.13;;;10.70;99.90;;;;;;5094788;28;20180;-84
2021/11/20 05:37:09;;;;;;;107.78;57.00;;;10.70;99.90;;;;;;5096254;28;20595;-83
2021/11/20 05:39:53;;;;;;;104.05;53.88;;;10.70;99.90;;;;;;5094981;28;20198;-84
2021/11/20 05:42:19;;;;;;;103.60;57.67;;;10.70;99.90;;;;;;5096545;28;20171;-84
2021/11/20 05:44:53;;;;;;;104.10;52.90;;;10.70;99.90;;;;;;5096167;28;20637;-84
2021/11/20 05:47:27;;;;;;;103.30;52.05;;;10.60;99.90;;;;;;5097345;28;20175;-84
2021/11/20 05:49:53;;;;;;;102.10;51.58;;;10.60;99.90;;;;;;5095069;28;20261;-84
2021/11/20 05:52:24;;;;;;;98.03;48.73;;;10.60;99.90;;;;;;5096013;28;20724;-84
2021/11/20 05:54:50;;;;;;;103.35;53.03;;;10.60;99.90;;;;;;5096270;28;20183;-84
2021/11/20 05:57:19;;;;;;;104.33;61.43;;;10.50;99.90;;;;;;5095692;28;20168;-84
2021/11/20 05:59:54;;;;;;;102.78;56.55;;;10.50;99.90;;;;;;5094514;28;20198;-84
2021/11/20 06:02:20;;;;;;;95.90;46.53;;;10.50;99.90;;;;;;5095408;28;20556;-83
2021/11/20 06:04:51;;;;;;;98.90;48.03;;;10.50;99.90;;;;;;5094335;28;20167;-83
2021/11/20 06:07:17;;;;;;;104.82;63.67;;;10.50;99.90;;;;;;5096511;28;20470;-84
2021/11/20 06:09:43;;;;;;;103.28;59.28;;;10.50;99.90;;;;;;5095715;28;20186;-84
2021/11/20 06:12:11;;;;;;;109.82;63.13;;;10.50;99.90;;;;;;5095954;28;20212;-84
2021/11/20 06:14:37;;;;;;;111.75;75.32;;;10.60;99.90;;;;;;5096418;28;20198;-84
2021/11/20 06:17:03;;;;;;;103.77;53.53;;;10.60;99.90;;;;;;5096364;28;20630;-84
2021/11/20 06:19:29;;;;;;;103.37;70.37;;;10.50;99.90;;;;;;5095152;28;20191;-84
2021/11/20 06:22:04;;;;;;;104.80;66.87;;;10.60;99.90;;;;;;5094949;28;20475;-84
2021/11/20 06:24:36;;;;;;;100.05;57.83;;;10.50;99.90;;;;;;5096408;28;20227;-84
2021/11/20 06:27:07;;;;;;;109.35;66.25;;;10.50;99.90;;;;;;5094957;28;20166;-84
2021/11/20 06:29:42;;;;;;;109.50;79.43;;;10.50;99.90;;;;;;5095936;28;20175;-84
2021/11/20 06:32:26;;;;;;;113.15;93.47;;;10.50;99.90;;;;;;5096264;28;20148;-84
2021/11/20 06:35:07;;;;;;;116.47;103.72;;;10.60;99.90;;;;;;5096085;28;20174;-84
2021/11/20 06:37:47;;;;;;;116.30;98.57;;;10.60;99.90;;;;;;5096284;28;20170;-84
2021/11/20 06:40:19;;;;;;;114.40;84.20;;;10.60;99.90;;;;;;5095307;28;20179;-84
2021/11/20 06:42:54;;;;;;;124.30;110.32;;;10.60;99.90;;;;;;5095782;28;20206;-84
2021/11/20 06:45:38;;;;;;;115.70;98.63;;;10.60;99.90;;;;;;5095982;28;20151;-84
2021/11/20 06:48:07;;;;;;;114.43;90.63;;;10.60;99.90;;;;;;5092762;28;20194;-84
2021/11/20 06:50:40;;;;;;;113.25;99.18;;;10.60;99.90;;;;;;5095646;28;20187;-84
2021/11/20 06:53:18;;;;;;;120.93;107.18;;;10.60;99.90;;;;;;5095886;28;20147;-84
2021/11/20 06:55:46;;;;;;;123.30;109.60;;;10.50;99.90;;;;;;5096027;28;20182;-83
2021/11/20 07:00:50;;;;;;;128.77;115.10;;;10.60;99.90;;;;;;5100928;28;20290;-84
2021/11/20 07:03:30;;;;;;;127.50;114.25;;;10.60;99.90;;;;;;5099002;28;20392;-83
2021/11/20 07:05:59;;;;;;;126.90;113.57;;;10.50;99.90;;;;;;5099163;28;20147;-84
2021/11/20 07:08:30;;;;;;;122.68;109.63;;;10.50;99.90;;;;;;5097630;28;20167;-83
2021/11/20 07:11:02;;;;;;;119.85;104.07;;;10.50;99.90;;;;;;5099073;28;20175;-83
2021/11/20 07:13:37;;;;;;;118.63;102.05;;;10.60;99.90;;;;;;5097247;28;20168;-83
2021/11/20 07:16:10;;;;;;;119.80;105.13;;;10.60;99.90;;;;;;5097766;28;20205;-84
2021/11/20 07:18:38;;;;;;;116.75;101.90;;;10.50;99.90;;;;;;5098153;28;20217;-84
2021/11/20 07:21:08;;;;;;;141.70;127.80;;;10.60;99.90;;;;;;5098346;28;20566;-84
2021/11/20 07:23:35;;;;;;;124.38;111.15;;;10.60;99.90;;;;;;5099288;28;20210;-84
2021/11/20 07:26:02;;;;;;;111.53;86.38;;;10.60;99.90;;;;;;5099138;28;20163;-84
2021/11/20 07:28:28;;;;;;;116.65;97.72;;;10.60;99.90;;;;;;5099186;28;20505;-84
2021/11/20 07:30:58;;;;;;;125.85;112.38;;;10.70;99.90;;;;;;5098857;28;20252;-84
2021/11/20 07:33:25;;;;;;;117.82;102.10;;;10.70;99.90;;;;;;5099611;28;20167;-84
2021/11/20 07:36:00;;;;;;;118.32;84.60;;;10.60;99.90;;;;;;5099114;28;20165;-84
2021/11/20 07:38:38;;;;;;;111.30;74.20;;;10.60;99.90;;;;;;5098486;28;20147;-83
2021/11/20 07:41:07;;;;;;;104.50;58.63;;;10.70;99.90;;;;;;5097694;28;20186;-84
2021/11/20 07:43:36;;;;;;;119.43;99.53;;;10.70;99.90;;;;;;5097898;28;20185;-84
2021/11/20 07:46:08;;;;;;;112.40;90.47;;;10.60;99.90;;;;;;5098900;28;20210;-84
2021/11/20 07:48:44;;;;;;;109.60;78.60;;;10.60;99.90;;;;;;5098677;28;20271;-83
2021/11/20 07:51:26;;;;;;;119.60;94.05;;;10.70;99.90;;;;;;5098721;28;20177;-83
2021/11/20 07:54:07;;;;;;;120.13;103.97;;;10.60;99.90;;;;;;5096768;28;20194;-83
2021/11/20 07:56:42;;;;;;;118.13;104.10;;;10.70;99.90;;;;;;5098511;28;20186;-84
2021/11/20 07:59:14;;;;;;;126.18;112.88;;;10.60;99.90;;;;;;5097413;28;20220;-84
2021/11/20 08:01:45;;;;;;;119.95;102.22;;;10.60;99.90;;;;;;5098038;28;20209;-83
2021/11/20 08:04:14;;;;;;;117.68;93.68;;;10.60;99.90;;;;;;5098485;28;20500;-84
2021/11/20 08:06:43;;;;;;;121.80;97.75;;;10.60;99.90;;;;;;5099209;28;20155;-84
2021/11/20 08:09:10;;;;;;;120.78;83.82;;;10.60;99.90;;;;;;5098182;28;20605;-83
2021/11/20 08:11:40;;;;;;;112.28;80.82;;;10.70;99.90;;;;;;5098500;28;20178;-83
2021/11/20 08:14:08;;;;;;;111.35;81.55;;;10.70;99.90;;;;;;5099073;28;20186;-84
2021/11/20 08:16:38;;;;;;;116.70;90.35;;;10.70;99.90;;;;;;5097172;28;20175;-84
2021/11/20 08:19:05;;;;;;;115.32;81.13;;;10.80;99.90;;;;;;5097822;28;20747;-83
2021/11/20 08:21:34;;;;;;;115.40;81.28;;;10.70;99.90;;;;;;5080484;28;20302;-84
2021/11/20 08:24:00;;;;;;;122.32;96.55;;;10.70;99.90;;;;;;5098728;28;20187;-84
2021/11/20 08:26:36;;;;;;;;;;;;;;;;;;;;;
2021/11/20 08:29:08;;;;;;;119.35;96.07;;;10.70;99.90;;;;;;5098012;28;20177;-83
2021/11/20 08:31:48;;;;;;;107.72;74.00;;;10.70;99.90;;;;;;5098359;28;20209;-84
2021/11/20 08:34:15;;;;;;;112.45;78.85;;;10.80;99.90;;;;;;5097548;28;20163;-84
2021/11/20 08:36:50;;;;;;;109.75;72.68;;;10.80;99.90;;;;;;5096607;28;20255;-84
2021/11/20 08:39:19;;;;;;;107.95;69.97;;;10.80;99.90;;;;;;5096639;28;20622;-84
2021/11/20 08:41:47;;;;;;;103.50;57.45;;;10.90;99.90;;;;;;5095628;28;20187;-83
2021/11/20 08:44:13;;;;;;;110.03;67.05;;;10.90;99.90;;;;;;5097867;28;20163;-83
2021/11/20 08:46:47;;;;;;;113.60;78.90;;;10.90;99.90;;;;;;5098231;28;20159;-84
2021/11/20 08:49:16;;;;;;;128.90;106.40;;;10.90;99.90;;;;;;5097397;28;20934;-83
2021/11/20 08:51:46;;;;;;;121.38;98.32;;;10.90;99.90;;;;;;5097395;28;20172;-84
2021/11/20 08:57:37;;;;;;;100.65;45.85;;;10.90;99.90;;;;;;4842597;26;20219;-81
2021/11/20 09:03:16;;;;;;;94.85;39.60;;;11.00;99.90;;;;;;4865911;26;20211;-83
2021/11/20 09:06:06;;;;;;;93.45;36.33;;;11.00;99.90;;;;;;5035395;28;20169;-84
2021/11/20 09:09:22;;;;;;;;;;;;;;;;;;;;;
2021/11/20 09:12:36;;;;;;;92.07;29.13;;;11.10;99.90;;;;;;5035106;28;20183;-84
2021/11/20 09:15:42;;;;;;;91.75;26.80;;;11.10;99.90;;;;;;5016181;28;20211;-82
2021/11/20 09:19:00;;;;;;;;;;;;;;;;;;;;;
2021/11/20 10:00:13;;;;;;;91.55;31.08;;;11.40;99.90;;;;;;5156859;22;20227;-83
2021/11/20 10:03:25;;;;;;;93.25;30.02;;;11.40;99.90;;;;;;5093645;28;20220;-81
2021/11/20 10:10:06;;;;;;;92.93;33.42;;;11.50;99.90;;;;;;5152078;22;20233;-82
2021/11/20 10:13:20;;;;;;;91.88;34.78;;;11.40;99.90;;;;;;5096198;28;20201;-81
2021/11/20 10:23:26;;;;;;;95.68;30.75;;;11.40;99.90;;;;;;5096234;28;20171;-81
2021/11/20 10:26:32;;;;;;;99.80;50.55;;;11.30;99.90;;;;;;5081223;28;20171;-82
2021/11/20 10:29:34;;;;;;;94.30;32.80;;;11.30;99.90;;;;;;5096037;28;20666;-82
2021/11/20 10:32:59;;;;;;;90.78;31.55;;;11.20;99.90;;;;;;5096443;28;20606;-81
2021/11/20 10:36:06;;;;;;;90.70;33.90;;;11.10;99.90;;;;;;5067585;28;20280;-82
2021/11/20 10:39:02;;;;;;;89.88;29.92;;;11.30;99.90;;;;;;5100135;28;20217;-82
2021/11/20 10:42:33;;;;;;;91.32;26.50;;;11.10;99.90;;;;;;5098931;28;20547;-82
2021/11/20 10:45:47;;;;;;;94.45;38.65;;;11.00;99.90;;;;;;5099811;28;20580;-82
2021/11/20 10:51:12;;;;;;;94.03;40.40;;;11.20;99.90;;;;;;5104293;22;20317;-82
2021/11/20 10:54:01;;;;;;;95.18;39.10;;;11.20;99.90;;;;;;5092358;28;20167;-83
2021/11/20 10:56:48;;;;;;;93.55;32.90;;;11.10;99.90;;;;;;5100064;28;20511;-82
2021/11/20 10:59:50;;;;;;;96.03;32.00;;;11.00;99.90;;;;;;5099606;28;20558;-82
2021/11/20 11:02:40;;;;;;;92.05;34.22;;;11.10;99.90;;;;;;5098690;28;20197;-82
2021/11/20 11:06:04;;;;;;;96.65;41.17;;;11.10;99.90;;;;;;5100443;28;20640;-82
2021/11/20 11:08:54;;;;;;;94.45;34.85;;;11.10;99.90;;;;;;5099397;28;20167;-82
2021/11/20 11:11:38;;;;;;;98.85;53.80;;;11.10;99.90;;;;;;5099998;28;20170;-82
2021/11/20 11:14:51;;;;;;;111.00;93.30;;;11.30;99.90;;;;;;5099458;28;20163;-82
2021/11/20 11:17:32;;;;;;;125.13;112.18;;;11.30;99.90;;;;;;5099880;28;20152;-82
2021/11/20 11:20:35;;;;;;;123.82;110.78;;;11.40;99.90;;;;;;5121781;22;20253;-82
2021/11/20 11:23:36;;;;;;;121.82;108.85;;;11.40;99.90;;;;;;5098817;28;20228;-82
2021/11/20 11:27:01;;;;;;;108.88;90.63;;;11.30;99.90;;;;;;5099858;28;20638;-82
2021/11/20 11:29:58;;;;;;;;;;;;;;;;;;;;;
2021/11/20 11:33:04;;;;;;;114.00;95.57;;;11.20;99.90;;;;;;5056946;28;20176;-82
2021/11/20 11:36:07;;;;;;;105.45;76.93;;;11.20;99.90;;;;;;5086767;28;20206;-84
2021/11/20 11:40:02;;;;;;;94.63;47.63;;;11.10;99.90;;;;;;5097793;28;20194;-82
2021/11/20 11:42:44;;;;;;;94.10;38.15;;;11.00;99.90;;;;;;5013963;28;20274;-82
2021/11/20 11:48:54;;;;;;;108.88;76.13;;;11.00;99.90;;;;;;5006010;28;20205;-82
2021/11/20 11:52:15;;;;;;;114.90;101.85;;;11.30;99.90;;;;;;5017042;28;20196;-82
2021/11/20 11:58:40;;;;;;;125.70;112.68;;;11.50;99.90;;;;;;5091922;28;20208;-82
2021/11/20 12:01:18;;;;;;;123.35;110.40;;;11.40;99.90;;;;;;5098665;28;20198;-82
2021/11/20 12:04:22;;;;;;;114.93;102.40;;;11.50;99.90;;;;;;5098624;28;20179;-82
2021/11/20 12:08:07;;;;;;;123.60;111.00;;;11.30;99.90;;;;;;5098628;28;20200;-82
2021/11/20 12:11:13;;;;;;;123.22;110.22;;;11.30;99.90;;;;;;5092682;28;20195;-81
2021/11/20 12:13:54;;;;;;;106.63;84.00;;;11.30;99.90;;;;;;5097731;28;20173;-82
2021/11/20 12:17:07;;;;;;;120.80;107.82;;;11.20;99.90;;;;;;5099497;28;20148;-84
2021/11/20 12:26:53;;;;;;;;;;;;;;;;;;;;;
2021/11/20 12:30:29;;;;;;;108.25;91.15;;;11.40;99.90;;;;;;5097904;28;20279;-82
2021/11/20 12:33:53;;;;;;;;;;;;;;;;;;;;;
2021/11/20 12:40:03;;;;;;;105.72;84.70;;;11.00;99.90;;;;;;5002791;28;20673;-82
2021/11/20 12:43:27;;;;;;;118.03;105.18;;;11.00;99.90;;;;;;5016073;28;20198;-84
2021/11/20 12:46:37;;;;;;;101.53;72.00;;;11.20;99.90;;;;;;5097240;28;20174;-84
2021/11/20 12:53:02;;;;;;;85.20;27.10;;;11.20;99.90;;;;;;5080331;28;20173;-83
2021/11/20 12:56:11;;;;;;;;;;;;;;;;;;;;;
2021/11/20 12:59:13;;;;;;;92.85;26.23;;;11.30;99.90;;;;;;5097083;28;20266;-81
2021/11/20 13:09:10;;;;;;;91.32;39.85;;;11.00;99.90;;;;;;5097719;28;20178;-81
2021/11/20 13:12:17;;;;;;;91.60;40.15;;;11.10;99.90;;;;;;5070006;28;20270;-82
2021/11/20 13:15:30;;;;;;;89.38;35.55;;;11.20;99.90;;;;;;5015456;28;20178;-81
2021/11/20 13:18:47;;;;;;;98.03;53.42;;;11.20;99.90;;;;;;4998405;28;20236;-81
2021/11/20 13:22:31;;;;;;;94.68;36.03;;;11.30;99.90;;;;;;5083861;28;20215;-82
2021/11/20 13:29:07;;;;;;;84.40;24.13;;;11.20;99.90;;;;;;4956228;28;20251;-82
2021/11/20 13:32:45;;;;;;;86.85;28.52;;;11.30;99.90;;;;;;4998560;28;20573;-82
2021/11/20 13:35:18;;;;;;;87.63;26.92;;;11.30;99.90;;;;;;4937358;29;20179;-82
2021/11/20 13:41:50;;;;;;;87.30;27.33;;;11.30;99.90;;;;;;4881150;29;20238;-82
2021/11/20 13:44:44;;;;;;;89.38;21.48;;;11.20;99.90;;;;;;4941493;28;20181;-82
2021/11/20 13:51:29;;;;;;;82.93;22.40;;;11.40;99.90;;;;;;5054583;28;20312;-82
2021/11/20 13:54:33;;;;;;;;;;;;;;;;;;;;;
2021/11/20 14:01:18;;;;;;;89.38;24.38;;;11.20;99.90;;;;;;5054398;28;20702;-84
2021/11/20 14:04:31;;;;;;;84.63;21.98;;;11.20;99.90;;;;;;5054495;28;20228;-82
2021/11/20 14:07:09;;;;;;;85.28;23.45;;;11.10;99.90;;;;;;5040074;28;20175;-82
2021/11/20 14:10:29;;;;;;;85.65;21.35;;;11.10;99.90;;;;;;5055935;28;20733;-82
2021/11/20 14:13:36;;;;;;;84.50;20.88;;;11.20;99.90;;;;;;5026750;28;20184;-82
2021/11/20 14:23:08;;;;;;;86.93;25.65;;;11.00;99.90;;;;;;5038548;28;20208;-82
2021/11/20 14:29:43;;;;;;;;;;;;;;;;;;;;;
2021/11/20 14:40:55;;;;;;;;;;;;;;;;;;;;;
2021/11/20 14:43:23;;;;;;;84.38;18.20;;;10.70;99.90;;;;;;5002306;28;20194;-81
2021/11/20 14:53:31;;;;;;;;;;;;;;;;;;;;;
2021/11/20 14:56:10;;;;;;;86.15;24.67;;;10.80;99.90;;;;;;5122064;22;20313;-85
2021/11/20 14:58:36;;;;;;;91.53;36.97;;;10.70;99.90;;;;;;5108339;28;20183;-85
2021/11/20 15:01:04;;;;;;;95.13;54.67;;;10.80;99.90;;;;;;5107785;28;20217;-85
2021/11/20 15:03:32;;;;;;;90.28;39.08;;;10.70;99.90;;;;;;5107809;28;20171;-85
2021/11/20 15:06:02;;;;;;;93.63;46.95;;;10.80;99.90;;;;;;5108271;28;20250;-85
2021/11/20 15:08:28;;;;;;;105.63;69.97;;;10.80;99.90;;;;;;5107066;28;20163;-85
2021/11/20 15:10:54;;;;;;;105.13;81.87;;;10.80;99.90;;;;;;5106214;28;20237;-85
2021/11/20 15:13:20;;;;;;;104.57;86.63;;;10.80;99.90;;;;;;5108210;28;20930;-85
2021/11/20 15:15:46;;;;;;;105.40;87.90;;;10.80;99.90;;;;;;5107625;28;20397;-85
2021/11/20 15:18:12;;;;;;;112.63;96.55;;;10.70;99.90;;;;;;5107685;28;20174;-85
2021/11/20 15:20:39;;;;;;;111.15;96.00;;;10.70;99.90;;;;;;5105005;28;20174;-85
2021/11/20 15:23:05;;;;;;;109.70;89.82;;;10.70;99.90;;;;;;5107261;28;20163;-85
2021/11/20 15:25:31;;;;;;;103.25;74.85;;;10.60;99.90;;;;;;5107379;28;20223;-85
2021/11/20 15:27:57;;;;;;;106.50;78.95;;;10.50;99.90;;;;;;5106310;28;20569;-85
2021/11/20 15:30:23;;;;;;;109.88;83.00;;;10.50;99.90;;;;;;5103118;28;20183;-85
2021/11/20 15:32:49;;;;;;;101.73;70.87;;;10.50;99.90;;;;;;5105732;28;20260;-85
2021/11/20 15:35:15;;;;;;;103.97;75.27;;;10.50;99.90;;;;;;5107755;28;20408;-85
2021/11/20 15:37:41;;;;;;;103.43;82.72;;;10.50;99.90;;;;;;5102965;28;20167;-84
2021/11/20 15:40:09;;;;;;;101.82;79.97;;;10.50;99.90;;;;;;5102075;28;20694;-84
2021/11/20 15:42:36;;;;;;;106.13;83.70;;;10.40;99.90;;;;;;5101807;28;20195;-84
2021/11/20 15:45:04;;;;;;;105.45;77.32;;;10.40;99.90;;;;;;5103399;28;20159;-85
2021/11/20 15:47:33;;;;;;;110.00;79.97;;;10.40;99.90;;;;;;5105617;28;20291;-85
2021/11/20 15:49:58;;;;;;;102.03;77.85;;;10.40;99.90;;;;;;5103088;28;20197;-85
2021/11/20 15:52:24;;;;;;;100.87;72.00;;;10.40;99.90;;;;;;5103765;28;20167;-85
2021/11/20 15:54:50;;;;;;;106.03;86.23;;;10.30;99.90;;;;;;5106841;28;20281;-85
2021/11/20 15:57:16;;;;;;;103.17;78.13;;;10.30;99.90;;;;;;5102184;28;20386;-85
2021/11/20 15:59:54;;;;;;;106.33;79.03;;;10.30;99.90;;;;;;5106721;28;20194;-85
2021/11/20 16:02:19;;;;;;;103.97;77.25;;;10.40;99.90;;;;;;5106850;28;20171;-85
2021/11/20 16:04:48;;;;;;;101.80;74.47;;;10.40;99.90;;;;;;5106797;28;20695;-85
2021/11/20 16:07:16;;;;;;;102.28;74.93;;;10.30;99.90;;;;;;5106534;28;20161;-85
2021/11/20 16:09:48;;;;;;;102.00;69.15;;;10.30;99.90;;;;;;5106456;28;20187;-85
2021/11/20 16:12:19;;;;;;;101.65;74.68;;;10.30;99.90;;;;;;5107143;28;20148;-85
2021/11/20 16:14:47;;;;;;;95.28;52.63;;;10.20;99.90;;;;;;5106204;28;20515;-85
2021/11/20 16:17:16;;;;;;;95.18;55.75;;;10.10;99.90;;;;;;5106010;28;20168;-85
2021/11/20 16:19:48;;;;;;;89.97;35.60;;;10.10;99.90;;;;;;5105771;28;20550;-85
2021/11/20 16:22:16;;;;;;;92.20;38.13;;;10.00;99.90;;;;;;5105396;28;20178;-85
2021/11/20 16:24:48;;;;;;;88.80;37.40;;;10.00;99.90;;;;;;5105294;28;20167;-85
2021/11/20 16:27:14;;;;;;;87.70;32.33;;;10.00;99.90;;;;;;5105883;28;20151;-85